Time;durP1;ratioP1;P1;durP2;ratioP2;P2;SDS_P1;SDS_P2;PMS_P1;PMS_P2;Temp;Humidity;BMP_temperature;BMP_pressure;BME280_temperature;BME280_humidity;BME280_pressure;Samples;Min_cycle;Max_cycle;Signal;HPM_P1;HPM_P2
2021/04/08 00:00:32;;;;;;;;;16.00;16.00;;;;;8.23;64.45;100632.66;5053685;28;11480;-73
2021/04/08 00:03:00;;;;;;;;;12.00;12.00;;;;;8.19;64.99;100620.63;5053151;28;11607;-74
2021/04/08 00:05:55;;;;;;;;;16.75;16.75;;;;;8.24;65.05;100637.84;5036607;28;11679;-73
2021/04/08 00:08:51;;;;;;;;;14.25;13.00;;;;;8.26;65.01;100649.34;5053139;28;11642;-73
2021/04/08 00:11:47;;;;;;;;;18.25;18.25;;;;;8.22;65.26;100650.31;5052862;28;11550;-73
2021/04/08 00:14:15;;;;;;;;;15.00;13.25;;;;;8.26;65.59;100659.56;5053286;28;11698;-73
2021/04/08 00:17:11;;;;;;;;;11.50;11.50;;;;;8.23;64.96;100658.25;5053326;28;11582;-73
2021/04/08 00:20:21;;;;;;;;;15.25;15.25;;;;;8.11;64.33;100673.72;5053587;28;11485;-73
2021/04/08 00:23:17;;;;;;;;;14.50;14.50;;;;;8.18;64.22;100683.16;5050458;28;11584;-73
2021/04/08 00:26:12;;;;;;;;;13.50;13.50;;;;;8.18;63.31;100698.88;5032782;28;11568;-72
2021/04/08 00:29:08;;;;;;;;;10.75;10.75;;;;;8.26;63.26;100704.44;5032922;28;11555;-73
2021/04/08 00:32:04;;;;;;;;;12.50;12.50;;;;;8.18;63.50;100709.91;5036371;28;11665;-74
2021/04/08 00:34:32;;;;;;;;;11.75;11.75;;;;;8.12;63.67;100717.47;5033697;28;11652;-74
2021/04/08 00:37:28;;;;;;;;;14.75;14.75;;;;;8.11;63.45;100709.53;5032855;28;11659;-71
2021/04/08 00:40:23;;;;;;;;;11.50;11.50;;;;;8.18;63.49;100705.22;5033578;28;11640;-73
2021/04/08 00:42:51;;;;;;;;;11.50;11.50;;;;;8.12;62.88;100708.41;5032654;28;11518;-73
2021/04/08 00:45:46;;;;;;;;;11.75;11.75;;;;;8.04;62.83;100701.72;5040664;28;11527;-73
2021/04/08 00:48:42;;;;;;;;;13.50;13.50;;;;;8.12;63.10;100703.72;5052519;28;11552;-73
2021/04/08 00:51:18;;;;;;;;;12.00;12.00;;;;;8.09;62.57;100705.16;5053426;28;11585;-73
2021/04/08 00:53:47;;;;;;;;;11.00;11.00;;;;;8.16;62.50;100710.22;5052609;28;11604;-73
2021/04/08 00:56:42;;;;;;;;;12.00;11.50;;;;;7.86;61.83;100703.53;5052706;28;11556;-73
2021/04/08 00:59:38;;;;;;;;;11.25;11.00;;;;;8.04;60.95;100718.22;5052672;28;11552;-73
2021/04/08 01:02:34;;;;;;;;;9.75;9.75;;;;;7.89;61.07;100713.09;5054644;28;11572;-73
2021/04/08 01:05:30;;;;;;;;;12.00;10.00;;;;;7.94;60.78;100726.75;5052573;28;11621;-73
2021/04/08 01:08:26;;;;;;;;;9.00;9.00;;;;;7.76;60.49;100725.81;5052455;28;11576;-73
2021/04/08 01:11:22;;;;;;;;;9.50;9.50;;;;;7.40;61.57;100709.28;5055842;28;11481;-73
2021/04/08 01:14:18;;;;;;;;;13.00;13.00;;;;;7.76;60.48;100720.31;5053133;28;11566;-73
2021/04/08 01:17:24;;;;;;;;;13.75;13.75;;;;;7.56;60.67;100705.06;5052815;28;11564;-73
2021/04/08 01:20:34;;;;;;;;;13.00;13.00;;;;;7.66;60.87;100731.53;5050590;28;11585;-72
2021/04/08 01:23:48;;;;;;;;;12.00;12.00;;;;;7.61;61.34;100771.00;5052939;28;12306;-72
2021/04/08 01:27:21;;;;;;;;;13.00;13.00;;;;;7.69;61.63;100773.03;5051336;28;11596;-72
2021/04/08 01:30:41;;;;;;;;;10.00;10.00;;;;;7.67;62.67;100752.44;5051990;28;11572;-72
2021/04/08 01:33:39;;;;;;;;;12.75;12.75;;;;;7.58;62.74;100743.28;5052935;28;11594;-72
2021/04/08 01:36:36;;;;;;;;;12.00;12.00;;;;;7.70;62.16;100743.56;5052877;28;11541;-72
2021/04/08 01:39:34;;;;;;;;;8.50;8.50;;;;;7.66;62.66;100764.56;5052375;28;11597;-72
2021/04/08 01:42:32;;;;;;;;;16.25;15.50;;;;;7.63;63.32;100765.19;5051197;28;11529;-72
2021/04/08 01:45:30;;;;;;;;;14.25;14.25;;;;;7.59;63.60;100781.53;5053401;28;11591;-72
2021/04/08 01:48:29;;;;;;;;;11.50;11.50;;;;;7.69;62.70;100786.78;5051714;28;11572;-72
2021/04/08 01:51:25;;;;;;;;;15.00;14.00;;;;;7.65;62.99;100801.47;5053865;28;11530;-73
2021/04/08 01:54:27;;;;;;;;;13.00;13.00;;;;;7.56;62.65;100803.31;5033315;28;11642;-73
2021/04/08 01:57:26;;;;;;;;;10.75;10.75;;;;;7.65;63.08;100796.78;5032311;28;11666;-73
2021/04/08 02:00:22;;;;;;;;;12.25;12.25;;;;;7.63;62.89;100804.53;5040539;28;11552;-73
2021/04/08 02:02:54;;;;;;;;;9.25;9.25;;;;;7.62;62.38;100813.09;5053448;28;11537;-72
2021/04/08 02:05:51;;;;;;;;;5.00;5.00;;;;;7.53;62.50;100824.84;5054064;28;11493;-72
2021/04/08 02:08:50;;;;;;;;;11.75;11.75;;;;;7.48;62.84;100841.44;5055323;28;11656;-72
2021/04/08 02:11:48;;;;;;;;;10.50;10.50;;;;;7.61;62.45;100855.53;5055407;28;12327;-72
2021/04/08 02:14:47;;;;;;;;;9.25;9.25;;;;;7.62;62.50;100852.47;5056327;28;11496;-73
2021/04/08 02:17:45;;;;;;;;;8.75;8.75;;;;;7.61;62.12;100836.25;5058094;28;11521;-73
2021/04/08 02:20:42;;;;;;;;;10.25;10.25;;;;;7.72;61.70;100841.22;5055286;28;11511;-72
2021/04/08 02:23:41;;;;;;;;;7.50;7.50;;;;;7.59;61.79;100858.59;5053229;28;11663;-72
2021/04/08 02:26:40;;;;;;;;;6.00;6.00;;;;;7.59;61.91;100872.34;5055405;28;11535;-73
2021/04/08 02:29:22;;;;;;;;;8.50;8.50;;;;;7.53;62.33;100852.38;5054612;28;11510;-72
2021/04/08 02:31:50;;;;;;;;;10.00;10.00;;;;;7.53;62.60;100866.13;5056147;28;11519;-72
2021/04/08 02:34:40;;;;;;;;;11.25;11.25;;;;;7.60;61.84;100873.16;5055576;28;11561;-72
2021/04/08 02:37:07;;;;;;;;;7.75;7.75;;;;;7.61;62.28;100885.81;5056779;28;12349;-72
2021/04/08 02:39:35;;;;;;;;;10.25;10.25;;;;;7.53;62.40;100870.81;5055192;28;11543;-72
2021/04/08 02:42:31;;;;;;;;;11.00;11.00;;;;;7.59;61.96;100885.28;5056321;28;11480;-73
2021/04/08 02:45:27;;;;;;;;;10.25;9.00;;;;;7.53;62.98;100903.84;5055491;28;11583;-73
2021/04/08 02:48:24;;;;;;;;;8.00;8.00;;;;;7.41;63.26;100912.59;5055782;28;11546;-72
2021/04/08 02:51:26;;;;;;;;;10.00;10.00;;;;;7.45;63.20;100919.13;5038377;28;12235;-72
2021/04/08 02:54:24;;;;;;;;;9.00;9.00;;;;;7.45;63.03;100921.88;5054739;28;11606;-73
2021/04/08 02:57:37;;;;;;;;;9.00;9.00;;;;;7.39;63.34;100928.59;5054461;28;11494;-71
2021/04/08 03:00:36;;;;;;;;;9.00;9.00;;;;;7.38;64.03;100918.72;5056831;28;11506;-73
2021/04/08 03:03:39;;;;;;;;;9.00;9.00;;;;;7.33;63.63;100929.81;5056016;28;11624;-72
2021/04/08 03:06:35;;;;;;;;;9.00;9.00;;;;;7.40;63.48;100932.97;5055798;28;11652;-72
2021/04/08 03:09:40;;;;;;;;;9.75;9.75;;;;;7.42;63.58;100943.66;5054477;28;11572;-72
2021/04/08 03:12:48;;;;;;;;;6.50;6.00;;;;;7.48;62.86;100946.03;5054456;28;12169;-72
2021/04/08 03:15:45;;;;;;;;;6.50;6.50;;;;;7.29;62.84;100955.50;5054822;28;11568;-73
2021/04/08 03:18:42;;;;;;;;;14.75;14.75;;;;;7.35;63.63;100951.50;5054147;28;11489;-72
2021/04/08 03:21:39;;;;;;;;;8.50;8.50;;;;;7.31;63.24;100954.06;5054392;28;11548;-72
2021/04/08 03:24:40;;;;;;;;;9.25;9.25;;;;;7.33;63.86;100962.81;5054181;28;11578;-73
2021/04/08 03:27:18;;;;;;;;;8.50;8.50;;;;;7.36;64.14;100972.38;5054468;28;11538;-73
2021/04/08 03:30:15;;;;;;;;;10.25;10.25;;;;;7.34;63.34;100983.69;5050674;28;11721;-72
2021/04/08 03:33:14;;;;;;;;;11.00;11.00;;;;;7.22;63.79;100977.88;5053780;28;11515;-72
2021/04/08 03:36:10;;;;;;;;;17.50;16.25;;;;;7.22;64.07;100980.63;5054064;28;11534;-72
2021/04/08 03:39:08;;;;;;;;;28.00;26.75;;;;;7.16;63.99;100979.06;5055467;28;11548;-73
2021/04/08 03:41:39;;;;;;;;;12.00;12.00;;;;;7.02;63.58;100998.28;5052645;28;11592;-72
2021/04/08 03:44:08;;;;;;;;;15.00;14.00;;;;;7.03;64.47;101010.09;5054272;28;11546;-72
2021/04/08 03:47:05;;;;;;;;;25.75;25.75;;;;;7.18;63.79;101007.09;5055237;28;12580;-73
2021/04/08 03:50:01;;;;;;;;;12.00;12.00;;;;;7.13;63.49;101013.50;5054898;28;11685;-73
2021/04/08 03:52:29;;;;;;;;;18.00;18.00;;;;;7.03;63.57;101016.41;5053458;28;11577;-72
2021/04/08 03:55:27;;;;;;;;;28.00;27.00;;;;;7.10;63.21;101011.34;5053380;28;11583;-72
2021/04/08 03:57:55;;;;;;;;;18.50;18.25;;;;;7.00;63.60;101021.69;5054053;28;11655;-72
2021/04/08 04:00:52;;;;;;;;;18.00;17.50;;;;;6.99;63.95;101031.06;5054801;28;11582;-72
2021/04/08 04:03:50;;;;;;;;;23.00;22.50;;;;;7.27;63.62;101049.31;5054366;28;11557;-72
2021/04/08 04:06:51;;;;;;;;;18.00;17.50;;;;;7.01;64.23;101048.09;5053801;28;12289;-71
2021/04/08 04:09:48;;;;;;;;;13.25;13.25;;;;;7.10;63.61;101052.59;5047736;28;11547;-73
2021/04/08 04:12:44;;;;;;;;;19.50;19.50;;;;;7.11;65.10;101047.91;5053020;28;11551;-72
2021/04/08 04:15:13;;;;;;;;;17.25;17.25;;;;;7.08;64.97;101056.78;5054000;28;11574;-72
2021/04/08 04:17:44;;;;;;;;;13.50;13.50;;;;;7.16;64.57;101058.84;5054403;28;11557;-73
2021/04/08 04:20:15;;;;;;;;;16.25;16.25;;;;;7.18;64.08;101062.94;5052973;28;11564;-72
2021/04/08 04:22:43;;;;;;;;;15.50;15.50;;;;;7.34;64.40;101062.69;5052280;28;11551;-72
2021/04/08 04:25:19;;;;;;;;;13.75;12.25;;;;;7.32;64.18;101053.91;5055766;28;11595;-72
2021/04/08 04:27:46;;;;;;;;;22.00;18.75;;;;;7.26;63.61;101055.94;5053884;28;11562;-74
2021/04/08 04:30:14;;;;;;;;;17.25;17.25;;;;;7.27;64.16;101054.81;5053466;28;11560;-72
2021/04/08 04:32:41;;;;;;;;;14.25;14.25;;;;;7.40;63.96;101070.56;5053230;28;11563;-72
2021/04/08 04:35:37;;;;;;;;;20.50;19.00;;;;;7.52;63.90;101056.34;5051009;28;11590;-71
2021/04/08 04:38:32;;;;;;;;;19.00;18.00;;;;;7.44;63.60;101055.09;5053265;28;12451;-74
2021/04/08 04:41:28;;;;;;;;;18.50;18.50;;;;;7.38;63.58;101060.97;5041865;28;12375;-73
2021/04/08 04:44:04;;;;;;;;;14.50;14.00;;;;;7.35;63.69;101072.56;5035517;28;11655;-73
2021/04/08 04:46:32;;;;;;;;;25.50;24.75;;;;;7.67;63.25;101091.88;5052891;28;11540;-73
2021/04/08 04:49:12;;;;;;;;;19.75;19.00;;;;;7.63;63.13;101092.75;5055530;28;11640;-74
2021/04/08 04:51:42;;;;;;;;;19.75;19.25;;;;;7.65;62.93;101082.25;5035938;28;11552;-72
2021/04/08 04:54:09;;;;;;;;;18.50;18.50;;;;;7.70;62.56;101090.44;5054727;28;11566;-74
2021/04/08 04:56:37;;;;;;;;;18.75;18.25;;;;;7.66;61.63;101097.66;5053404;28;11684;-74
2021/04/08 04:59:33;;;;;;;;;15.00;15.00;;;;;7.75;62.16;101115.94;5042527;28;11732;-74
2021/04/08 05:02:00;;;;;;;;;18.75;18.25;;;;;7.77;61.96;101123.91;5053457;28;11582;-74
2021/04/08 05:04:59;;;;;;;;;24.50;23.75;;;;;7.88;61.75;101124.53;5053634;28;11568;-76
2021/04/08 05:07:28;;;;;;;;;20.00;20.00;;;;;7.83;61.86;101130.97;5044531;28;11580;-75
2021/04/08 05:10:25;;;;;;;;;20.00;20.00;;;;;7.86;61.63;101129.53;5034179;28;11600;-74
2021/04/08 05:12:52;;;;;;;;;15.75;15.75;;;;;7.69;62.11;101132.84;5038726;28;11586;-74
2021/04/08 05:15:19;;;;;;;;;19.75;19.75;;;;;7.67;62.03;101122.16;5039726;28;11568;-75
2021/04/08 05:17:58;;;;;;;;;20.00;19.25;;;;;7.77;62.79;101119.22;5032821;28;11564;-75
2021/04/08 05:20:39;;;;;;;;;18.25;18.25;;;;;7.98;62.04;101118.88;5039013;28;11627;-74
2021/04/08 05:23:07;;;;;;;;;23.25;22.25;;;;;7.84;61.09;101118.00;5054613;28;11663;-75
2021/04/08 05:26:04;;;;;;;;;14.75;14.75;;;;;8.04;61.45;101123.94;5033916;28;12417;-75
2021/04/08 05:28:33;;;;;;;;;23.25;23.00;;;;;7.97;60.19;101126.28;5033335;28;11598;-75
2021/04/08 05:31:30;;;;;;;;;15.25;15.25;;;;;8.03;60.40;101121.50;5042455;28;11676;-76
2021/04/08 05:34:26;;;;;;;;;17.25;17.25;;;;;7.99;60.63;101126.81;5052066;28;11651;-75
2021/04/08 05:37:22;;;;;;;;;16.25;16.25;;;;;7.68;60.91;101121.03;5051888;28;11683;-76
2021/04/08 05:40:18;;;;;;;;;37.25;37.25;;;;;7.64;61.62;101121.91;5055257;28;11585;-75
2021/04/08 05:43:15;;;;;;;;;18.25;15.25;;;;;7.53;61.93;101133.09;5055437;28;11584;-75
2021/04/08 05:46:12;;;;;;;;;67.50;54.75;;;;;7.56;63.40;101128.91;5057476;28;11544;-76
2021/04/08 05:48:46;;;;;;;;;18.75;18.50;;;;;7.73;61.00;101125.59;5079814;28;11605;-75
2021/04/08 05:51:42;;;;;;;;;26.25;25.25;;;;;7.85;61.18;101123.22;5070265;28;11571;-75
2021/04/08 05:54:22;;;;;;;;;24.00;24.00;;;;;7.96;60.38;101132.91;5082074;28;12431;-75
2021/04/08 05:57:02;;;;;;;;;20.75;20.75;;;;;8.11;61.27;101128.25;5079325;28;11579;-75
2021/04/08 05:59:58;;;;;;;;;8.25;7.50;;;;;8.32;61.11;101133.09;5035988;28;12365;-77
2021/04/08 06:02:55;;;;;;;;;19.75;19.75;;;;;8.62;59.45;101139.16;5042458;28;11510;-76
2021/04/08 06:05:27;;;;;;;;;26.00;21.50;;;;;8.76;59.78;101151.00;5038052;28;11667;-73
2021/04/08 06:07:56;;;;;;;;;17.25;17.25;;;;;8.82;59.12;101154.47;5035728;28;11577;-73
2021/04/08 06:10:58;;;;;;;;;24.50;21.25;;;;;9.10;58.05;101150.53;5053056;28;11582;-73
2021/04/08 06:13:25;;;;;;;;;17.00;17.00;;;;;9.07;57.24;101158.63;5054821;28;11552;-72
2021/04/08 06:16:22;;;;;;;;;18.00;18.00;;;;;9.35;57.54;101151.91;5041503;28;11589;-73
2021/04/08 06:19:11;;;;;;;;;23.50;22.00;;;;;9.40;57.11;101156.50;5054017;28;11513;-72
2021/04/08 06:22:08;;;;;;;;;22.50;19.00;;;;;9.54;55.72;101167.50;5054839;28;11597;-73
2021/04/08 06:25:04;;;;;;;;;24.00;23.00;;;;;9.66;56.29;101170.50;5062157;28;11515;-72
2021/04/08 06:27:34;;;;;;;;;23.25;22.00;;;;;9.47;56.79;101181.72;5043985;28;11513;-73
2021/04/08 06:30:35;;;;;;;;;22.75;22.75;;;;;9.55;57.09;101180.97;5033923;28;11530;-73
2021/04/08 06:33:05;;;;;;;;;20.25;20.25;;;;;9.31;56.40;101195.06;5036438;28;11520;-74
2021/04/08 06:36:03;;;;;;;;;22.50;21.50;;;;;9.48;56.99;101184.19;5046756;28;11562;-73
2021/04/08 06:38:59;;;;;;;;;21.75;21.75;;;;;9.30;55.69;101185.16;5056470;28;11493;-73
2021/04/08 06:41:30;;;;;;;;;20.75;19.50;;;;;9.42;55.30;101174.38;5056271;28;11522;-73
2021/04/08 06:44:03;;;;;;;;;15.50;15.50;;;;;9.65;54.35;101183.50;5034080;28;11553;-74
2021/04/08 06:47:03;;;;;;;;;23.50;23.50;;;;;9.68;54.85;101196.69;5045662;28;11309;-74
2021/04/08 06:50:03;;;;;;;;;16.75;16.75;;;;;9.51;53.77;101204.00;5054489;28;11502;-74
2021/04/08 06:53:06;;;;;;;;;17.25;17.25;;;;;9.77;53.06;101207.81;5054771;28;11311;-73
2021/04/08 06:55:36;;;;;;;;;11.25;11.25;;;;;9.77;52.82;101205.06;5056920;28;11356;-72
2021/04/08 06:58:31;;;;;;;;;16.25;16.25;;;;;9.80;52.85;101200.84;5054667;28;11246;-73
2021/04/08 07:01:09;;;;;;;;;13.00;13.00;;;;;9.74;51.78;101205.69;5054067;28;11506;-72
2021/04/08 07:03:53;;;;;;;;;19.00;19.00;;;;;9.90;52.42;101198.66;5050876;28;11487;-73
2021/04/08 07:06:50;;;;;;;;;22.00;21.50;;;;;10.08;53.11;101196.00;5062589;28;11502;-73
2021/04/08 07:09:18;;;;;;;;;22.25;20.50;;;;;10.45;52.73;101195.59;5067210;28;11538;-73
2021/04/08 07:11:46;;;;;;;;;25.25;24.25;;;;;10.46;52.29;101186.19;5049594;28;11511;-73
2021/04/08 07:14:17;;;;;;;;;25.00;22.00;;;;;10.59;52.24;101192.75;5052379;28;11506;-72
2021/04/08 07:16:59;;;;;;;;;9.00;9.00;;;;;10.66;52.07;101187.59;5043241;28;11648;-73
2021/04/08 07:19:29;;;;;;;;;22.00;22.00;;;;;10.44;51.08;101196.75;5049402;28;11542;-73
2021/04/08 07:22:00;;;;;;;;;23.75;22.50;;;;;10.61;50.99;101201.53;5052964;28;11216;-73
2021/04/08 07:24:28;;;;;;;;;20.25;20.25;;;;;10.55;52.71;101214.69;5054308;28;11257;-73
2021/04/08 07:27:04;;;;;;;;;23.00;21.50;;;;;10.76;53.14;101217.72;5053426;28;11125;-72
2021/04/08 07:29:51;;;;;;;;;20.00;20.00;;;;;10.79;50.97;101227.31;5045161;28;11544;-73
2021/04/08 07:33:04;;;;;;;;;20.75;19.25;;;;;10.81;49.32;101231.41;5048860;28;11495;-71
2021/04/08 07:36:03;;;;;;;;;20.00;18.75;;;;;11.10;49.37;101227.25;5052197;28;11193;-74
2021/04/08 07:38:50;;;;;;;;;19.25;19.25;;;;;10.61;49.60;101239.44;5053580;28;11124;-73
2021/04/08 07:41:22;;;;;;;;;22.50;21.00;;;;;10.69;49.46;101236.72;5054772;28;11153;-73
2021/04/08 07:44:09;;;;;;;;;19.00;15.00;;;;;11.18;49.81;101233.97;5054535;28;11222;-74
2021/04/08 07:46:46;;;;;;;;;17.75;17.25;;;;;11.44;47.73;101237.63;5054012;28;11798;-73
2021/04/08 07:49:36;;;;;;;;;16.75;16.75;;;;;11.56;47.20;101242.50;5042514;28;11270;-73
2021/04/08 07:52:31;;;;;;;;;16.00;16.00;;;;;11.49;47.57;101240.22;5054937;28;10988;-73
2021/04/08 07:55:29;;;;;;;;;12.50;12.50;;;;;11.34;46.99;101243.44;5051269;28;10837;-73
2021/04/08 07:58:09;;;;;;;;;13.50;13.50;;;;;11.60;46.63;101246.28;5053139;28;10883;-73
2021/04/08 08:01:05;;;;;;;;;16.25;16.25;;;;;11.55;46.88;101244.47;5055532;28;10731;-73
2021/04/08 08:03:42;;;;;;;;;19.00;15.50;;;;;11.57;47.06;101252.44;5055015;28;10704;-72
2021/04/08 08:06:42;;;;;;;;;10.00;10.00;;;;;11.81;43.31;101241.75;5034426;28;10601;-72
2021/04/08 08:09:47;;;;;;;;;9.25;9.25;;;;;11.86;42.77;101238.81;5034949;28;11274;-72
2021/04/08 08:12:18;;;;;;;;;11.25;9.00;;;;;11.54;41.32;101242.84;5043177;28;10324;-73
2021/04/08 08:14:46;;;;;;;;;22.00;21.75;;;;;11.82;40.33;101237.84;5054459;28;10408;-74
2021/04/08 08:17:42;;;;;;;;;13.50;13.00;;;;;11.96;39.36;101243.19;5053197;28;10681;-73
2021/04/08 08:20:10;;;;;;;;;11.00;11.00;;;;;11.93;39.80;101249.41;5054185;28;10415;-73
2021/04/08 08:22:50;;;;;;;;;9.75;9.75;;;;;11.83;40.17;101256.09;5049023;28;10400;-73
2021/04/08 08:25:58;;;;;;;;;7.75;7.75;;;;;11.68;40.87;101248.25;5053821;28;10439;-73
2021/04/08 08:28:33;;;;;;;;;8.00;8.00;;;;;11.70;40.60;101252.31;5042723;28;10372;-73
2021/04/08 08:31:50;;;;;;;;;8.25;8.25;;;;;11.60;40.41;101246.28;5050841;28;10401;-73
2021/04/08 08:34:39;;;;;;;;;10.75;10.75;;;;;11.64;40.57;101242.50;5053851;28;10362;-73
2021/04/08 08:37:11;;;;;;;;;8.00;8.00;;;;;12.13;38.16;101247.94;5052344;28;10557;-73
2021/04/08 08:39:44;;;;;;;;;6.50;6.50;;;;;12.37;38.48;101248.22;5051471;28;10281;-73
2021/04/08 08:42:26;;;;;;;;;6.50;6.50;;;;;11.84;39.65;101246.66;5049812;28;10460;-76
2021/04/08 08:44:54;;;;;;;;;13.50;11.75;;;;;12.18;39.58;101244.97;5058667;28;10367;-74
2021/04/08 08:47:30;;;;;;;;;12.50;11.25;;;;;12.46;39.13;101251.78;5057159;28;10636;-73
2021/04/08 08:50:11;;;;;;;;;10.50;8.75;;;;;12.39;39.33;101242.34;5052412;28;10389;-71
2021/04/08 08:52:41;;;;;;;;;10.50;10.50;;;;;12.83;39.10;101245.81;5064824;28;10330;-73
2021/04/08 08:55:23;;;;;;;;;6.00;6.00;;;;;12.34;36.33;101248.88;5067748;28;10403;-72
2021/04/08 08:57:57;;;;;;;;;8.25;8.25;;;;;12.30;37.31;101250.69;5051125;28;10017;-74
2021/04/08 09:00:56;;;;;;;;;6.50;6.50;;;;;12.39;37.50;101251.47;5052893;28;10101;-74
2021/04/08 09:03:27;;;;;;;;;9.25;9.25;;;;;12.16;37.12;101256.41;5052815;28;10218;-70
2021/04/08 09:05:56;;;;;;;;;8.75;8.25;;;;;12.02;37.22;101250.22;5053988;28;10240;-72
2021/04/08 09:08:43;;;;;;;;;9.75;9.75;;;;;12.69;36.89;101251.56;5054977;28;10220;-72
2021/04/08 09:11:42;;;;;;;;;8.50;8.50;;;;;12.98;37.18;101267.47;5053873;28;10341;-73
2021/04/08 09:14:32;;;;;;;;;10.00;10.00;;;;;13.25;36.40;101255.09;5059017;28;10083;-72
2021/04/08 09:17:00;;;;;;;;;8.00;8.00;;;;;12.91;35.41;101272.72;5058392;28;10247;-74
2021/04/08 09:19:33;;;;;;;;;6.25;6.25;;;;;12.71;34.76;101265.91;5057041;28;9962;-70
2021/04/08 09:22:07;;;;;;;;;9.50;9.50;;;;;13.21;36.52;101262.50;5058926;28;10566;-74
2021/04/08 09:24:47;;;;;;;;;6.50;6.50;;;;;13.12;34.68;101262.50;5057527;28;9798;-73
2021/04/08 09:27:55;;;;;;;;;8.00;8.00;;;;;13.11;34.59;101257.25;5059087;28;9725;-72
2021/04/08 09:33:42;;;;;;;;;10.00;10.00;;;;;13.02;35.17;101257.31;5053791;28;9918;-74
2021/04/08 09:36:39;;;;;;;;;9.25;9.25;;;;;13.12;35.79;101262.50;5065476;28;10131;-73
2021/04/08 09:39:11;;;;;;;;;6.25;6.25;;;;;12.99;35.44;101263.53;5050979;28;9912;-71
2021/04/08 09:41:55;;;;;;;;;6.50;6.50;;;;;13.04;35.63;101261.41;5062189;28;9773;-73
2021/04/08 09:44:53;;;;;;;;;7.25;7.25;;;;;13.14;35.11;101256.63;5055199;28;9833;-73
2021/04/08 09:48:12;;;;;;;;;9.25;9.25;;;;;13.13;36.61;101260.56;5064628;28;10063;-73
2021/04/08 09:50:53;;;;;;;;;8.50;8.50;;;;;13.46;36.07;101260.72;5063143;28;10131;-74
2021/04/08 09:53:37;;;;;;;;;5.00;5.00;;;;;13.36;34.44;101261.91;5062182;28;9783;-72
2021/04/08 09:56:07;;;;;;;;;8.50;8.00;;;;;13.42;35.52;101266.13;5057667;28;9877;-73
2021/04/08 09:59:07;;;;;;;;;9.50;9.50;;;;;13.26;35.24;101270.63;5057066;28;9815;-72
2021/04/08 10:01:35;;;;;;;;;10.00;10.00;;;;;12.84;34.04;101267.69;5056048;28;9993;-73
2021/04/08 10:04:12;;;;;;;;;10.50;10.50;;;;;12.89;33.46;101269.47;5055759;28;10001;-73
2021/04/08 10:07:08;;;;;;;;;6.25;6.25;;;;;12.89;31.91;101270.28;5055201;28;10119;-73
2021/04/08 10:10:05;;;;;;;;;4.00;4.00;;;;;12.54;32.72;101275.13;5055057;28;9883;-72
2021/04/08 10:13:01;;;;;;;;;5.25;5.25;;;;;12.57;33.24;101282.75;5043419;28;10086;-73
2021/04/08 10:15:37;;;;;;;;;5.00;5.00;;;;;12.23;33.48;101281.69;5054695;28;10023;-72
2021/04/08 10:18:23;;;;;;;;;6.25;6.25;;;;;12.67;34.27;101281.63;5055553;28;9925;-72
2021/04/08 10:21:10;;;;;;;;;7.75;7.75;;;;;12.74;33.24;101279.16;5054118;28;10014;-72
2021/04/08 10:24:13;;;;;;;;;9.25;9.25;;;;;12.82;33.71;101297.75;5053677;28;10105;-75
2021/04/08 10:27:13;;;;;;;;;8.25;7.50;;;;;12.94;32.91;101289.53;5054505;28;10146;-73
2021/04/08 10:30:18;;;;;;;;;10.50;9.50;;;;;13.28;34.24;101294.16;5054968;28;10023;-74
2021/04/08 10:33:18;;;;;;;;;7.25;7.25;;;;;13.09;33.79;101288.97;5041931;28;10185;-72
2021/04/08 10:36:01;;;;;;;;;9.50;8.25;;;;;13.09;33.78;101300.06;5043714;28;10112;-73
2021/04/08 10:39:17;;;;;;;;;9.00;7.25;;;;;13.24;33.33;101297.94;5051588;28;9920;-71
2021/04/08 10:42:09;;;;;;;;;15.25;15.25;;;;;13.15;33.75;101297.94;5054060;28;10016;-72
2021/04/08 10:45:09;;;;;;;;;8.00;8.00;;;;;13.43;33.76;101309.44;5051064;28;10922;-72
2021/04/08 10:47:45;;;;;;;;;9.00;9.00;;;;;12.98;33.91;101304.38;5054059;28;10125;-72
2021/04/08 10:50:17;;;;;;;;;13.75;12.00;;;;;13.32;34.08;101306.22;5051151;28;10155;-73
2021/04/08 10:53:26;;;;;;;;;10.75;10.75;;;;;13.35;32.62;101307.53;5054239;28;10002;-73
2021/04/08 10:55:54;;;;;;;;;18.25;18.25;;;;;13.62;32.73;101309.00;5054077;28;10149;-72
2021/04/08 10:58:28;;;;;;;;;17.75;17.00;;;;;13.50;34.16;101315.28;5051426;28;10150;-73
2021/04/08 11:01:36;;;;;;;;;10.50;10.50;;;;;13.49;32.90;101323.94;5047209;28;10235;-75
2021/04/08 11:04:38;;;;;;;;;14.00;13.75;;;;;13.11;32.62;101323.91;5054725;28;9920;-72
2021/04/08 11:07:40;;;;;;;;;9.00;9.00;;;;;12.70;32.96;101330.91;5040250;28;10287;-73
2021/04/08 11:10:37;;;;;;;;;5.00;5.00;;;;;12.92;33.54;101335.44;5052835;28;10086;-75
2021/04/08 11:13:07;;;;;;;;;14.25;9.25;;;;;13.45;33.04;101323.00;5052573;28;9935;-72
2021/04/08 11:29:18;;;;;;;;;;;;;;;;;;;;;
2021/04/08 11:32:50;;;;;;;;;9.00;8.00;;;;;13.00;32.71;101340.94;5019888;28;9689;-76
2021/04/08 12:10:55;;;;;;;;;11.25;11.25;;;;;13.60;31.24;101341.88;5057141;28;9623;-75
2021/04/08 12:14:10;;;;;;;;;11.50;11.50;;;;;13.63;29.50;101325.31;5044517;28;9667;-76
2021/04/08 12:29:40;;;;;;;;;8.50;8.50;;;;;14.55;30.68;101352.31;4968814;28;9597;-77
2021/04/08 13:01:18;;;;;;;;;5.00;5.00;;;;;15.28;28.75;101341.38;4894745;29;9406;-73
2021/04/08 13:34:47;;;;;;;;;15.67;13.67;;;;;15.55;28.77;101341.81;4976099;23;8877;-79
2021/04/08 13:37:44;;;;;;;;;17.67;17.33;;;;;15.37;28.45;101344.03;4921739;29;9060;-76
2021/04/08 13:40:40;;;;;;;;;15.67;14.33;;;;;15.23;29.08;101340.78;4934073;29;9197;-78
2021/04/08 13:43:35;;;;;;;;;11.00;11.00;;;;;15.11;29.06;101336.00;4933793;29;9956;-78
2021/04/08 13:46:31;;;;;;;;;11.33;11.33;;;;;15.05;28.63;101329.03;4934198;29;9181;-77
2021/04/08 13:49:27;;;;;;;;;13.67;13.67;;;;;15.28;28.52;101327.44;4933922;29;9540;-77
2021/04/08 13:52:23;;;;;;;;;10.75;10.75;;;;;15.54;27.55;101331.84;4933760;29;9417;-78
2021/04/08 13:55:18;;;;;;;;;12.67;10.67;;;;;15.15;27.07;101339.72;4921368;29;9503;-77
2021/04/08 13:57:48;;;;;;;;;42.25;26.25;;;;;15.33;27.23;101348.66;4934982;29;10159;-78
2021/04/08 14:00:43;;;;;;;;;10.33;10.33;;;;;15.20;26.92;101342.28;4936528;29;10184;-78
2021/04/08 14:03:39;;;;;;;;;8.00;8.00;;;;;15.38;26.45;101342.88;4924685;29;10037;-77
2021/04/08 14:06:37;;;;;;;;;11.33;11.33;;;;;15.56;26.80;101354.59;4936392;29;9182;-77
2021/04/08 14:09:32;;;;;;;;;5.00;5.00;;;;;15.33;25.86;101357.03;4924501;29;9153;-77
2021/04/08 14:12:00;;;;;;;;;6.00;6.00;;;;;15.03;26.16;101362.00;4938026;29;9255;-77
2021/04/08 14:14:56;;;;;;;;;5.75;5.75;;;;;15.08;26.26;101370.13;4936239;29;9259;-77
2021/04/08 14:17:53;;;;;;;;;8.33;8.33;;;;;14.88;26.95;101359.88;4937140;29;9497;-76
2021/04/08 14:20:48;;;;;;;;;9.00;9.00;;;;;14.69;28.18;101363.16;4937101;29;9419;-78
2021/04/08 14:23:48;;;;;;;;;5.00;5.00;;;;;14.58;27.18;101360.00;4936859;29;9495;-79
2021/04/08 14:26:29;;;;;;;;;8.00;8.00;;;;;14.64;26.15;101350.25;4923998;29;9662;-77
2021/04/08 14:29:26;;;;;;;;;5.75;5.75;;;;;14.33;25.78;101361.00;4936909;29;9399;-76
2021/04/08 14:32:21;;;;;;;;;5.50;5.50;;;;;13.78;25.87;101373.16;4936517;29;9711;-76
2021/04/08 14:35:17;;;;;;;;;9.00;9.00;;;;;13.79;25.47;101360.88;4935992;29;10467;-76
2021/04/08 14:38:16;;;;;;;;;7.00;7.00;;;;;14.06;26.06;101370.69;4936812;29;9878;-76
2021/04/08 14:41:12;;;;;;;;;6.50;6.50;;;;;14.02;25.52;101370.53;4924896;29;9778;-76
2021/04/08 14:44:08;;;;;;;;;6.00;6.00;;;;;14.04;26.08;101384.94;4924259;29;9795;-76
2021/04/08 14:47:04;;;;;;;;;13.75;13.00;;;;;14.06;26.17;101376.25;4935845;29;9764;-75
2021/04/08 14:50:00;;;;;;;;;8.25;8.25;;;;;14.19;26.55;101378.78;4936736;29;10169;-75
2021/04/08 14:52:27;;;;;;;;;7.25;7.25;;;;;14.14;27.70;101378.97;4920876;29;10044;-75
2021/04/08 14:55:23;;;;;;;;;42.00;23.00;;;;;13.86;26.54;101383.41;4924344;29;9728;-75
2021/04/08 14:58:19;;;;;;;;;8.25;8.25;;;;;13.77;26.78;101388.22;4923572;29;10193;-75
2021/04/08 15:01:14;;;;;;;;;8.00;8.00;;;;;13.79;26.96;101391.47;4936230;29;9818;-74
2021/04/08 15:04:11;;;;;;;;;7.50;7.50;;;;;13.82;26.29;101388.03;4936243;29;9782;-75